Detall de PIREP

Printer-friendly versionPDF version

[2013/01/24 16:29:00]
Flight IATA:CT0001
Pilot Number:042
Company ICAO:CAT
Aircraft Type:C750/F
PAX:2
Departing Airport: LEGE
Destination Airport: LEVC
Alternate Airport:LEPA
Online: VATSIM
Route:MAMUK H110 SEROX A34 SAURA
Flight Level:F190
No Slew and time accel
No pause
Crash detect
Detect pilot in Cockpit between each 30 and 45 minutes
16:29 Zero fuel Weight: 22921 Lbs, Fuel Weight: 12978 Lbs
16:29 VATSIM:LEGE 241600Z 20004KT 170V240 9999 FEW030 09/01 Q1004
16:29 VATSIM:LEVC 241600Z 31023G33KT 9999 FEW030 17/M03 Q1008 NOSIG
16:29 VOICE CATALONIAN
16:41 Parking Brakes off
16:50 Take-off
16:50 Take off Weight: 35719 Lbs
16:50 Wind: 202º @ 009 Knots Heading: 196º
16:50 POS N41º 53´ 58´´ E002º 45´ 35´´
16:50 Gear Up: 160 Knots
16:50 Flaps:4 at 160 Knots
16:50 Flaps:3 at 162 Knots
16:55 Flaps:2 at 247 Knots
16:56 TOC
16:56 Fuel Weight: 12434 Lb
16:57 TOD
16:57 Fuel Weight: 12425 Lb
16:57 TOC
16:57 Fuel Weight: 12422 Lb
16:59 TOD
16:59 Fuel Weight: 12366 Lb
16:59 TOC
16:59 Fuel Weight: 12364 Lb
17:05 Wind:311º@043 Knots Heading: 263º Ground Speed: 377 Knots Altitude 18746 ft
17:20 Wind:309º@042 Knots Heading: 202º Ground Speed: 419 Knots Altitude 18877 ft
17:25 TOD
17:25 Fuel Weight: 11563 Lb
17:28 Flaps:3 at 242 Knots
17:32 Flaps:4 at 196 Knots
17:34 Gear Down: 146 Knots
17:34 Flaps:5 at 146 Knots
17:35 Wind:213º@006 Knots Heading: 292º Ground Speed: 135 Knots Altitude 2191 ft
17:37 TouchDown:Rate -660 ft/min Speed: 128 Knots
17:37 VATSIM:LEVC 241730Z 29011KT 9999 FEW030 15/M02 Q1009 NOSIG
17:38 Land
17:38 Wind:213º@006 Knots
17:38 Heading: 295º
17:38 Flight Duration: 00:48
17:38 Landing Weight: 34361 Lbs
17:38 POS N39º 29´ 20´´ W000º 28´ 55´´
17:47 Parking brakes on
17:47 Block to Block Duration: 01:06
17:47 Final Fuel: 11353 Lbls
17:47 Spent Fuel: 1624 Lbls
17:47 Flight Length: 265 NM
17:47 TOD Land Length: 47 NM

Exportar CSV

Powered by Drupal - Modified by Danger4k